createdAt,value
2019-03-20T00:00:16.617Z,89.8
2019-03-20T00:01:16.626Z,89.9
2019-03-20T00:02:16.879Z,90.2
2019-03-20T00:03:17.178Z,90.3
2019-03-20T00:04:16.452Z,90.3
2019-03-20T00:05:16.737Z,90.3
2019-03-20T00:06:17.012Z,90.3
2019-03-20T00:07:16.293Z,90.3
2019-03-20T00:08:16.559Z,90.4
2019-03-20T00:09:16.812Z,90.4
2019-03-20T00:10:17.081Z,90.3
2019-03-20T00:11:17.121Z,90.2
2019-03-20T00:12:16.390Z,90.3
2019-03-20T00:13:16.655Z,90.5
2019-03-20T00:14:16.917Z,90.5
2019-03-20T00:15:17.182Z,90.5
2019-03-20T00:16:16.449Z,90.5
2019-03-20T00:17:16.770Z,90.4
2019-03-20T00:18:17.031Z,90.6
2019-03-20T00:19:16.283Z,90.5
2019-03-20T00:20:16.557Z,90.4
2019-03-20T00:21:16.653Z,90.3
2019-03-20T00:22:16.923Z,90.5
2019-03-20T00:23:17.195Z,90.6
2019-03-20T00:24:16.515Z,90.7
2019-03-20T00:25:16.824Z,90.7
2019-03-20T00:26:17.095Z,90.7
2019-03-20T00:27:16.365Z,90.8
2019-03-20T00:28:16.634Z,90.8
2019-03-20T00:29:16.895Z,90.9
2019-03-20T00:30:17.222Z,90.8
2019-03-20T00:31:17.221Z,90.9
2019-03-20T00:32:16.509Z,90.8
2019-03-20T00:33:16.776Z,90.9
2019-03-20T00:34:17.044Z,90.9
2019-03-20T00:35:16.293Z,90.9
2019-03-20T00:36:16.564Z,90.8
2019-03-20T00:37:16.858Z,90.3
2019-03-20T00:38:17.124Z,89.8
2019-03-20T00:39:16.386Z,89.4
2019-03-20T00:40:16.679Z,89.3
2019-03-20T00:41:16.695Z,89.2
2019-03-20T00:42:16.956Z,89.2
2019-03-20T00:43:17.213Z,89.2
2019-03-20T00:44:16.472Z,89.6
2019-03-20T00:45:16.734Z,89.7
2019-03-20T00:46:16.995Z,89.8
2019-03-20T00:47:16.270Z,90.0
2019-03-20T00:48:16.548Z,90.0
2019-03-20T00:49:16.809Z,90.0
2019-03-20T00:50:17.074Z,90.1
2019-03-20T00:51:17.118Z,90.2
2019-03-20T00:52:16.383Z,90.1
2019-03-20T00:53:16.647Z,90.0
2019-03-20T00:54:16.920Z,90.2
2019-03-20T00:55:17.207Z,90.2
2019-03-20T00:56:16.476Z,90.3
2019-03-20T00:57:16.752Z,90.3
2019-03-20T00:58:17.013Z,90.4
2019-03-20T00:59:16.277Z,90.4
2019-03-20T01:00:16.572Z,90.5
2019-03-20T01:01:16.616Z,90.6
2019-03-20T01:02:16.879Z,90.5
2019-03-20T01:03:17.214Z,90.6
2019-03-20T01:04:16.510Z,90.6
2019-03-20T01:05:16.781Z,90.8
2019-03-20T01:06:17.047Z,90.9
2019-03-20T01:07:16.328Z,91.0
2019-03-20T01:08:16.591Z,91.1
2019-03-20T01:09:16.868Z,91.2
2019-03-20T01:10:17.153Z,91.2
2019-03-20T01:11:17.217Z,91.2
2019-03-20T01:12:17.891Z,91.3
2019-03-20T01:13:17.158Z,91.4
2019-03-20T01:14:16.428Z,91.4
2019-03-20T01:15:16.701Z,91.5
2019-03-20T01:16:16.961Z,91.4
2019-03-20T01:17:17.221Z,91.3
2019-03-20T01:18:16.493Z,91.4
2019-03-20T01:19:16.788Z,91.3
2019-03-20T01:20:17.048Z,91.5
2019-03-20T01:21:17.098Z,91.7
2019-03-20T01:22:16.365Z,91.5
2019-03-20T01:23:16.632Z,91.6
2019-03-20T01:24:16.895Z,91.5
2019-03-20T01:25:17.159Z,91.4
2019-03-20T01:26:16.422Z,91.6
2019-03-20T01:27:16.703Z,91.5
2019-03-20T01:28:16.970Z,91.5
2019-03-20T01:29:17.252Z,91.5
2019-03-20T01:30:16.538Z,91.6
2019-03-20T01:31:16.570Z,91.8
2019-03-20T01:32:16.857Z,91.8
2019-03-20T01:33:17.136Z,91.8
2019-03-20T01:34:16.403Z,91.8
2019-03-20T01:35:24.311Z,91.8
2019-03-20T01:36:16.632Z,92.0
2019-03-20T01:37:16.895Z,92.0
2019-03-20T01:38:17.157Z,92.2
2019-03-20T01:39:16.411Z,92.2
2019-03-20T01:40:16.687Z,92.2
2019-03-20T01:41:16.830Z,92.2
2019-03-20T01:42:17.090Z,92.3
2019-03-20T01:43:16.365Z,92.2
2019-03-20T01:44:16.631Z,92.2
2019-03-20T01:45:17.073Z,92.1
2019-03-20T01:46:16.405Z,92.0
2019-03-20T01:47:16.665Z,92.0
2019-03-20T01:48:16.970Z,91.8
2019-03-20T01:49:17.305Z,92.0
2019-03-20T01:50:16.579Z,92.0
2019-03-20T01:51:16.627Z,92.0
2019-03-20T01:52:16.894Z,92.2
2019-03-20T01:53:17.159Z,92.2
2019-03-20T01:54:16.441Z,92.2
2019-03-20T01:55:16.703Z,92.4
2019-03-20T01:56:16.971Z,92.5
2019-03-20T01:57:17.238Z,92.6
2019-03-20T01:58:16.505Z,92.5
2019-03-20T01:59:16.777Z,92.4
2019-03-20T02:00:17.050Z,92.4
2019-03-20T02:01:17.098Z,92.4
2019-03-20T02:02:16.366Z,92.5
2019-03-20T02:03:16.629Z,92.7
2019-03-20T02:04:16.894Z,92.5
2019-03-20T02:05:17.178Z,92.4
2019-03-20T02:06:16.443Z,92.3
2019-03-20T02:07:16.699Z,92.2
2019-03-20T02:08:16.965Z,92.1
2019-03-20T02:09:17.255Z,92.0
2019-03-20T02:10:16.534Z,92.0
2019-03-20T02:11:16.569Z,91.8
2019-03-20T02:12:16.848Z,91.8
2019-03-20T02:13:17.118Z,91.8
2019-03-20T02:14:16.517Z,91.7
2019-03-20T02:15:16.866Z,91.8
2019-03-20T02:16:17.204Z,91.9
2019-03-20T02:17:16.555Z,91.7
2019-03-20T02:18:16.890Z,91.7
2019-03-20T02:19:17.549Z,91.5
2019-03-20T02:20:16.899Z,91.5
2019-03-20T02:21:16.938Z,91.6
2019-03-20T02:22:17.283Z,91.4
2019-03-20T02:23:16.628Z,91.3
2019-03-20T02:24:16.963Z,91.2
2019-03-20T02:25:17.313Z,91.2
2019-03-20T02:26:16.656Z,91.2
2019-03-20T02:27:16.998Z,91.0
2019-03-20T02:28:16.338Z,91.2
2019-03-20T02:29:16.676Z,91.2
2019-03-20T02:30:17.063Z,91.2
2019-03-20T02:31:17.075Z,91.3
2019-03-20T02:32:16.431Z,91.5
2019-03-20T02:33:16.777Z,91.4
2019-03-20T02:34:17.146Z,91.4
2019-03-20T02:35:16.541Z,91.3
2019-03-20T02:36:16.904Z,91.3
2019-03-20T02:37:17.251Z,91.2
2019-03-20T02:38:16.602Z,91.2
2019-03-20T02:39:16.944Z,91.2
2019-03-20T02:40:17.303Z,91.5
2019-03-20T02:41:16.336Z,91.7
2019-03-20T02:42:16.670Z,91.8
2019-03-20T02:43:17.019Z,91.7
2019-03-20T02:44:16.378Z,91.6
2019-03-20T02:45:16.780Z,91.5
2019-03-20T02:46:17.140Z,91.4
2019-03-20T02:47:16.492Z,91.3
2019-03-20T02:48:16.858Z,91.1
2019-03-20T02:49:17.241Z,91.0
2019-03-20T02:50:16.602Z,91.1
2019-03-20T02:51:16.677Z,91.1
2019-03-20T02:52:17.049Z,91.2
2019-03-20T02:53:16.393Z,91.2
2019-03-20T02:54:16.749Z,91.2
2019-03-20T02:55:17.115Z,91.0
2019-03-20T02:56:16.504Z,90.6
2019-03-20T02:57:17.636Z,90.5
2019-03-20T02:58:16.991Z,90.5
2019-03-20T02:59:16.350Z,90.7
2019-03-20T03:00:16.697Z,90.7
2019-03-20T03:01:16.750Z,90.7
2019-03-20T03:02:17.097Z,90.7
2019-03-20T03:03:16.432Z,90.8
2019-03-20T03:04:16.785Z,90.8
2019-03-20T03:05:17.133Z,90.8
2019-03-20T03:06:16.479Z,90.8
2019-03-20T03:07:16.821Z,90.7
2019-03-20T03:08:17.174Z,90.6
2019-03-20T03:09:16.533Z,90.7
2019-03-20T03:10:16.936Z,90.8
2019-03-20T03:11:16.938Z,90.6
2019-03-20T03:12:17.283Z,90.6
2019-03-20T03:13:16.639Z,90.6
2019-03-20T03:14:16.989Z,90.7
2019-03-20T03:15:16.370Z,90.8
2019-03-20T03:16:16.717Z,90.8
2019-03-20T03:17:17.058Z,91.0
2019-03-20T03:18:16.399Z,90.8
2019-03-20T03:19:16.747Z,90.9
2019-03-20T03:20:17.134Z,90.8
2019-03-20T03:21:17.150Z,91.0
2019-03-20T03:22:16.534Z,91.0
2019-03-20T03:23:16.879Z,91.0
2019-03-20T03:24:17.281Z,91.2
2019-03-20T03:25:16.647Z,91.0
2019-03-20T03:26:16.998Z,91.0
2019-03-20T03:27:16.340Z,91.0
2019-03-20T03:28:16.682Z,91.0
2019-03-20T03:29:17.027Z,91.1
2019-03-20T03:30:16.706Z,91.0
2019-03-20T03:31:16.479Z,91.2
2019-03-20T03:32:16.857Z,91.2
2019-03-20T03:33:17.215Z,91.2
2019-03-20T03:34:16.555Z,91.2
2019-03-20T03:35:20.299Z,91.2
2019-03-20T03:36:21.971Z,91.2
2019-03-20T03:37:16.405Z,91.1
2019-03-20T03:38:16.742Z,91.1
2019-03-20T03:39:17.109Z,91.2
2019-03-20T03:40:16.479Z,91.2
2019-03-20T03:41:16.810Z,91.4
2019-03-20T03:42:17.170Z,91.5
2019-03-20T03:43:16.515Z,91.6
2019-03-20T03:44:16.877Z,91.7
2019-03-20T03:45:17.262Z,91.8
2019-03-20T03:46:16.667Z,91.8
2019-03-20T03:47:17.032Z,91.7
2019-03-20T03:48:16.402Z,91.7
2019-03-20T03:49:16.769Z,91.8
2019-03-20T03:50:17.134Z,91.8
2019-03-20T03:51:17.150Z,91.8
2019-03-20T03:52:16.521Z,92.0
2019-03-20T03:53:16.866Z,92.1
2019-03-20T03:54:17.203Z,92.2
2019-03-20T03:55:16.934Z,92.2
2019-03-20T03:56:17.301Z,92.2
2019-03-20T03:57:16.653Z,92.3
2019-03-20T03:58:17.008Z,92.4
2019-03-20T03:59:16.368Z,92.3
2019-03-20T04:00:16.737Z,92.3
2019-03-20T04:01:16.782Z,92.4
2019-03-20T04:02:17.078Z,92.4
2019-03-20T04:03:16.385Z,92.4
2019-03-20T04:04:16.797Z,92.5
2019-03-20T04:05:17.175Z,92.5
2019-03-20T04:06:16.491Z,92.5
2019-03-20T04:07:16.835Z,92.5
2019-03-20T04:08:17.148Z,92.5
2019-03-20T04:09:16.507Z,92.5
2019-03-20T04:10:16.880Z,92.6
2019-03-20T04:11:16.886Z,92.6
2019-03-20T04:12:17.186Z,92.6
2019-03-20T04:13:16.537Z,92.7
2019-03-20T04:14:16.828Z,92.7
2019-03-20T04:15:17.218Z,92.8
2019-03-20T04:16:16.519Z,93.0
2019-03-20T04:17:16.793Z,93.1
2019-03-20T04:18:17.099Z,93.2
2019-03-20T04:19:16.404Z,93.1
2019-03-20T04:20:16.742Z,93.2
2019-03-20T04:21:16.850Z,93.2
2019-03-20T04:22:17.195Z,93.3
2019-03-20T04:23:16.518Z,93.3
2019-03-20T04:24:16.852Z,93.3
2019-03-20T04:25:17.171Z,93.3
2019-03-20T04:26:16.506Z,93.2
2019-03-20T04:27:16.823Z,93.2
2019-03-20T04:28:17.120Z,93.2
2019-03-20T04:29:16.425Z,93.2
2019-03-20T04:30:16.821Z,93.3
2019-03-20T04:31:16.834Z,93.3
2019-03-20T04:32:17.135Z,93.5
2019-03-20T04:33:16.481Z,93.5
2019-03-20T04:34:16.831Z,93.4
2019-03-20T04:35:17.138Z,93.4
2019-03-20T04:36:16.442Z,93.5
2019-03-20T04:37:16.921Z,93.6
2019-03-20T04:38:17.261Z,93.4
2019-03-20T04:39:16.575Z,93.3
2019-03-20T04:40:16.889Z,93.4
2019-03-20T04:41:16.914Z,93.3
2019-03-20T04:42:17.229Z,93.4
2019-03-20T04:43:16.549Z,93.4
2019-03-20T04:44:16.861Z,93.5
2019-03-20T04:45:17.162Z,93.5
2019-03-20T04:46:16.466Z,93.5
2019-03-20T04:47:16.758Z,93.6
2019-03-20T04:48:17.058Z,93.8
2019-03-20T04:49:16.374Z,93.8
2019-03-20T04:50:16.690Z,93.8
2019-03-20T04:51:16.728Z,93.9
2019-03-20T04:52:17.061Z,93.9
2019-03-20T04:53:16.362Z,93.8
2019-03-20T04:54:16.675Z,93.8
2019-03-20T04:55:16.999Z,93.8
2019-03-20T04:56:16.303Z,94.0
2019-03-20T04:57:16.601Z,93.9
2019-03-20T04:58:16.909Z,93.8
2019-03-20T04:59:17.217Z,93.9
2019-03-20T05:00:16.557Z,93.9
2019-03-20T05:01:16.587Z,94.0
2019-03-20T05:02:16.886Z,94.0
2019-03-20T05:03:17.186Z,94.0
2019-03-20T05:04:16.458Z,94.1
2019-03-20T05:05:16.771Z,94.1
2019-03-20T05:06:17.079Z,94.2
2019-03-20T05:07:16.424Z,94.2
2019-03-20T05:08:16.717Z,94.2
2019-03-20T05:09:17.032Z,94.1
2019-03-20T05:10:16.347Z,94.2
2019-03-20T05:11:16.686Z,94.1
2019-03-20T05:12:16.998Z,94.0
2019-03-20T05:13:16.299Z,94.2
2019-03-20T05:14:16.692Z,94.2
2019-03-20T05:15:17.026Z,94.2
2019-03-20T05:16:16.335Z,94.2
2019-03-20T05:17:16.638Z,94.2
2019-03-20T05:18:16.964Z,94.3
2019-03-20T05:19:17.263Z,94.3
2019-03-20T05:20:16.613Z,94.3
2019-03-20T05:21:16.618Z,94.2
2019-03-20T05:22:16.897Z,94.2
2019-03-20T05:23:17.193Z,94.1
2019-03-20T05:24:16.474Z,94.1
2019-03-20T05:25:16.799Z,94.0
2019-03-20T05:26:17.119Z,94.1
2019-03-20T05:27:16.438Z,94.1
2019-03-20T05:28:16.740Z,94.0
2019-03-20T05:29:17.023Z,94.0
2019-03-20T05:30:16.369Z,94.0
2019-03-20T05:31:16.433Z,94.0
2019-03-20T05:32:16.724Z,94.0
2019-03-20T05:33:17.021Z,94.0
2019-03-20T05:34:16.355Z,94.0
2019-03-20T05:35:16.669Z,94.1
2019-03-20T05:36:16.966Z,94.2
2019-03-20T05:37:17.307Z,94.2
2019-03-20T05:38:16.581Z,94.1
2019-03-20T05:39:16.933Z,94.0
2019-03-20T05:40:17.246Z,94.0
2019-03-20T05:41:16.298Z,94.0
2019-03-20T05:42:16.671Z,93.8
2019-03-20T05:43:16.978Z,93.6
2019-03-20T05:44:17.297Z,93.5
2019-03-20T05:45:16.615Z,93.6
2019-03-20T05:46:16.892Z,93.5
2019-03-20T05:47:17.223Z,93.6
2019-03-20T05:48:16.542Z,93.7
2019-03-20T05:49:16.837Z,93.8
2019-03-20T05:50:17.165Z,93.8
2019-03-20T05:51:17.236Z,93.8
2019-03-20T05:52:16.555Z,93.8
2019-03-20T05:53:16.867Z,93.8
2019-03-20T05:54:17.190Z,93.8
2019-03-20T05:55:16.506Z,93.8
2019-03-20T05:56:16.809Z,93.7
2019-03-20T05:57:17.117Z,93.7
2019-03-20T05:58:16.408Z,93.6
2019-03-20T05:59:16.715Z,93.6
2019-03-20T06:00:17.013Z,93.4
2019-03-20T06:01:17.061Z,93.4
2019-03-20T06:02:16.366Z,93.4
2019-03-20T06:03:16.636Z,93.4
2019-03-20T06:04:16.934Z,93.5
2019-03-20T06:05:17.254Z,93.5
2019-03-20T06:06:16.564Z,93.4
2019-03-20T06:07:22.026Z,93.6
2019-03-20T06:08:16.388Z,93.5
2019-03-20T06:09:16.678Z,93.3
2019-03-20T06:10:17.011Z,93.1
2019-03-20T06:11:17.018Z,93.1
2019-03-20T06:12:16.321Z,93.0
2019-03-20T06:13:16.610Z,93.1
2019-03-20T06:14:16.896Z,93.0
2019-03-20T06:15:17.219Z,93.0
2019-03-20T06:16:16.508Z,93.0
2019-03-20T06:17:16.810Z,92.9
2019-03-20T06:18:17.128Z,92.8
2019-03-20T06:19:16.425Z,92.5
2019-03-20T06:20:16.729Z,92.3
2019-03-20T06:21:16.774Z,92.2
2019-03-20T06:22:17.082Z,91.8
2019-03-20T06:23:16.382Z,91.5
2019-03-20T06:24:16.652Z,91.3
2019-03-20T06:25:16.961Z,91.0
2019-03-20T06:26:18.062Z,90.8
2019-03-20T06:27:16.402Z,90.8
2019-03-20T06:28:16.720Z,90.8
2019-03-20T06:29:16.991Z,90.6
2019-03-20T06:30:16.340Z,90.3
2019-03-20T06:31:18.947Z,90.2
2019-03-20T06:32:17.263Z,90.1
2019-03-20T06:33:16.563Z,89.8
2019-03-20T06:34:16.865Z,89.8
2019-03-20T06:35:17.168Z,89.4
2019-03-20T06:36:16.477Z,89.2
2019-03-20T06:37:16.786Z,89.2
2019-03-20T06:38:17.131Z,89.0
2019-03-20T06:39:16.439Z,88.8
2019-03-20T06:40:16.739Z,88.6
2019-03-20T06:41:16.809Z,88.7
2019-03-20T06:42:17.108Z,88.5
2019-03-20T06:43:16.398Z,88.0
2019-03-20T06:44:16.720Z,88.0
2019-03-20T06:45:17.048Z,87.4
2019-03-20T06:46:16.341Z,87.5
2019-03-20T06:47:16.639Z,87.9
2019-03-20T06:48:16.972Z,87.9
2019-03-20T06:49:17.258Z,87.7
2019-03-20T06:50:16.579Z,87.8
2019-03-20T06:51:16.624Z,87.7
2019-03-20T06:52:16.948Z,87.6
2019-03-20T06:53:17.249Z,87.6
2019-03-20T06:54:16.553Z,87.5
2019-03-20T06:55:16.850Z,87.2
2019-03-20T06:56:17.134Z,87.0
2019-03-20T06:57:16.434Z,86.4
2019-03-20T06:58:16.727Z,86.2
2019-03-20T06:59:17.033Z,86.1
2019-03-20T07:00:16.400Z,85.4
2019-03-20T07:01:16.354Z,85.2
2019-03-20T07:02:16.647Z,84.8
2019-03-20T07:03:16.931Z,84.7
2019-03-20T07:04:17.258Z,84.3
2019-03-20T07:05:16.562Z,83.3
2019-03-20T07:06:16.890Z,83.1
2019-03-20T07:07:17.194Z,82.8
2019-03-20T07:08:16.494Z,82.7
2019-03-20T07:09:16.822Z,82.0
2019-03-20T07:10:17.106Z,81.8
2019-03-20T07:11:17.187Z,82.1
2019-03-20T07:12:16.524Z,82.2
2019-03-20T07:13:16.840Z,81.0
2019-03-20T07:14:17.202Z,80.8
2019-03-20T07:15:16.518Z,80.5
2019-03-20T07:16:16.832Z,81.1
2019-03-20T07:17:17.135Z,80.2
2019-03-20T07:18:16.451Z,80.0
2019-03-20T07:19:16.771Z,79.6
2019-03-20T07:20:17.114Z,80.2
2019-03-20T07:21:18.945Z,79.6
2019-03-20T07:22:17.289Z,79.2
2019-03-20T07:23:16.577Z,79.7
2019-03-20T07:24:16.889Z,79.9
2019-03-20T07:25:17.199Z,79.0
2019-03-20T07:26:16.532Z,78.3
2019-03-20T07:27:16.863Z,78.7
2019-03-20T07:28:17.178Z,78.7
2019-03-20T07:29:16.490Z,78.8
2019-03-20T07:30:16.808Z,78.6
2019-03-20T07:31:16.854Z,78.5
2019-03-20T07:32:17.141Z,77.6
2019-03-20T07:33:16.466Z,77.7
2019-03-20T07:34:16.753Z,77.3
2019-03-20T07:35:17.014Z,76.3
2019-03-20T07:36:16.304Z,76.0
2019-03-20T07:37:16.638Z,75.5
2019-03-20T07:38:16.919Z,76.3
2019-03-20T07:39:17.221Z,76.2
2019-03-20T07:40:16.550Z,75.5
2019-03-20T07:41:16.612Z,74.7
2019-03-20T07:42:17.216Z,73.5
2019-03-20T07:43:16.546Z,72.8
2019-03-20T07:44:16.869Z,72.4
2019-03-20T07:45:17.187Z,72.2
2019-03-20T07:46:16.496Z,71.8
2019-03-20T07:47:16.780Z,71.0
2019-03-20T07:48:22.699Z,71.0
2019-03-20T07:49:17.047Z,71.8
2019-03-20T07:50:16.341Z,72.8
2019-03-20T07:51:16.390Z,72.7
2019-03-20T07:52:16.709Z,73.3
2019-03-20T07:53:17.018Z,72.6
2019-03-20T07:54:16.310Z,71.8
2019-03-20T07:55:16.624Z,70.8
2019-03-20T07:56:16.966Z,69.5
2019-03-20T07:57:17.271Z,69.5
2019-03-20T07:58:16.603Z,68.8
2019-03-20T07:59:16.902Z,68.4
2019-03-20T08:00:17.212Z,67.8
2019-03-20T08:01:17.250Z,67.5
2019-03-20T08:02:16.522Z,66.8
2019-03-20T08:03:16.841Z,66.5
2019-03-20T08:04:17.122Z,66.2
2019-03-20T08:05:16.433Z,66.6
2019-03-20T08:06:16.740Z,65.9
2019-03-20T08:07:17.055Z,65.4
2019-03-20T08:08:16.359Z,67.2
2019-03-20T08:09:16.761Z,67.0
2019-03-20T08:10:17.059Z,66.8
2019-03-20T08:11:17.117Z,67.7
2019-03-20T08:12:16.411Z,67.8
2019-03-20T08:13:16.706Z,67.4
2019-03-20T08:14:17.002Z,66.6
2019-03-20T08:15:16.287Z,63.6
2019-03-20T08:16:16.595Z,64.1
2019-03-20T08:17:16.922Z,65.3
2019-03-20T08:18:17.259Z,65.0
2019-03-20T08:19:16.589Z,65.7
2019-03-20T08:20:16.917Z,64.6
2019-03-20T08:21:16.953Z,63.5
2019-03-20T08:22:17.278Z,62.9
2019-03-20T08:23:16.590Z,62.8
2019-03-20T08:24:16.906Z,62.7
2019-03-20T08:25:17.196Z,62.0
2019-03-20T08:26:16.521Z,62.2
2019-03-20T08:27:16.791Z,63.4
2019-03-20T08:28:17.090Z,61.4
2019-03-20T08:29:16.409Z,60.2
2019-03-20T08:30:16.745Z,59.4
2019-03-20T08:31:16.790Z,59.3
2019-03-20T08:32:17.093Z,59.9
2019-03-20T08:33:16.429Z,58.1
2019-03-20T08:34:16.715Z,58.8
2019-03-20T08:35:16.993Z,58.2
2019-03-20T08:36:16.303Z,59.5
2019-03-20T08:37:16.626Z,60.3
2019-03-20T08:38:19.061Z,59.8
2019-03-20T08:39:16.391Z,60.0
2019-03-20T08:40:16.698Z,58.5
2019-03-20T08:41:16.759Z,58.8
2019-03-20T08:42:17.050Z,58.7
2019-03-20T08:43:16.393Z,58.5
2019-03-20T08:44:16.694Z,57.2
2019-03-20T08:45:16.980Z,56.6
2019-03-20T08:46:17.260Z,56.2
2019-03-20T08:47:16.603Z,55.7
2019-03-20T08:48:16.911Z,56.8
2019-03-20T08:49:17.200Z,56.0
2019-03-20T08:50:16.499Z,57.0
2019-03-20T08:51:16.563Z,58.2
2019-03-20T08:52:16.867Z,59.2
2019-03-20T08:53:17.186Z,59.0
2019-03-20T08:54:16.539Z,58.1
2019-03-20T08:55:16.877Z,56.4
2019-03-20T08:56:17.216Z,55.3
2019-03-20T08:57:16.568Z,54.9
2019-03-20T08:58:16.919Z,54.2
2019-03-20T08:59:18.314Z,54.9
2019-03-20T09:00:16.655Z,56.2
2019-03-20T09:01:29.021Z,57.6
2019-03-20T09:02:16.418Z,57.2
2019-03-20T09:03:16.736Z,56.6
2019-03-20T09:04:17.049Z,55.9
2019-03-20T09:05:16.360Z,54.7
2019-03-20T09:06:16.655Z,53.5
2019-03-20T09:07:16.931Z,55.4
2019-03-20T09:08:17.233Z,56.4
2019-03-20T09:09:16.530Z,55.8
2019-03-20T09:10:16.836Z,54.5
2019-03-20T09:11:16.904Z,53.9
2019-03-20T09:12:17.217Z,54.2
2019-03-20T09:13:16.537Z,54.2
2019-03-20T09:14:16.850Z,54.8
2019-03-20T09:15:17.146Z,55.9
2019-03-20T09:16:16.450Z,56.6
2019-03-20T09:17:16.770Z,55.4
2019-03-20T09:18:17.038Z,56.9
2019-03-20T09:19:16.350Z,55.5
2019-03-20T09:20:16.684Z,54.3
2019-03-20T09:21:16.686Z,52.8
2019-03-20T09:22:16.982Z,50.2
2019-03-20T09:23:17.273Z,50.7
2019-03-20T09:24:16.586Z,51.0
2019-03-20T09:25:16.910Z,50.2
2019-03-20T09:26:17.171Z,50.3
2019-03-20T09:27:16.486Z,50.9
2019-03-20T09:28:16.771Z,51.5
2019-03-20T09:29:19.052Z,52.0
2019-03-20T09:30:16.388Z,51.5
2019-03-20T09:31:16.433Z,51.0
2019-03-20T09:32:16.728Z,52.0
2019-03-20T09:33:17.038Z,51.5
2019-03-20T09:34:16.353Z,51.6
2019-03-20T09:35:16.682Z,49.5
2019-03-20T09:36:16.990Z,48.5
2019-03-20T09:37:16.306Z,48.1
2019-03-20T09:38:16.630Z,47.0
2019-03-20T09:39:16.889Z,47.3
2019-03-20T09:40:17.204Z,46.4
2019-03-20T09:41:17.244Z,46.4
2019-03-20T09:42:16.558Z,46.7
2019-03-20T09:43:16.842Z,46.5
2019-03-20T09:44:17.169Z,46.3
2019-03-20T09:45:16.457Z,47.2
2019-03-20T09:46:16.754Z,49.2
2019-03-20T09:47:17.064Z,48.3
2019-03-20T09:48:16.348Z,48.3
2019-03-20T09:49:16.643Z,49.6
2019-03-20T09:50:16.981Z,49.6
2019-03-20T09:51:16.983Z,49.0
2019-03-20T09:52:17.322Z,49.2
2019-03-20T09:53:16.630Z,47.9
2019-03-20T09:54:16.964Z,45.6
2019-03-20T09:55:17.275Z,45.2
2019-03-20T09:56:16.620Z,48.5
2019-03-20T09:57:16.934Z,49.0
2019-03-20T09:58:17.246Z,47.9
2019-03-20T09:59:16.543Z,46.1
2019-03-20T10:00:16.835Z,45.5
2019-03-20T10:01:16.905Z,44.5
2019-03-20T10:02:17.238Z,43.8
2019-03-20T10:03:16.576Z,44.1
2019-03-20T10:04:16.885Z,43.4
2019-03-20T10:05:17.210Z,43.0
2019-03-20T10:06:16.539Z,42.5
2019-03-20T10:07:16.829Z,42.5
2019-03-20T10:08:17.123Z,38.6
2019-03-20T10:09:16.429Z,39.9
2019-03-20T10:10:16.747Z,41.0
2019-03-20T10:11:16.790Z,40.6
2019-03-20T10:12:17.067Z,40.2
2019-03-20T10:13:16.385Z,39.8
2019-03-20T10:14:16.699Z,39.8
2019-03-20T10:15:17.040Z,40.2
2019-03-20T10:16:16.362Z,40.2
2019-03-20T10:17:17.502Z,40.9
2019-03-20T10:18:16.808Z,39.5
2019-03-20T10:19:17.129Z,38.2
2019-03-20T10:20:16.432Z,38.5
2019-03-20T10:21:16.497Z,41.4
2019-03-20T10:22:16.808Z,41.0
2019-03-20T10:23:17.173Z,40.7
2019-03-20T10:24:16.517Z,39.7
2019-03-20T10:25:16.840Z,39.5
2019-03-20T10:26:17.149Z,39.1
2019-03-20T10:27:16.455Z,39.5
2019-03-20T10:28:16.753Z,42.3
2019-03-20T10:29:17.064Z,42.4
2019-03-20T10:30:16.374Z,43.0
2019-03-20T10:31:16.431Z,43.6
2019-03-20T10:32:16.750Z,42.7
2019-03-20T10:33:17.054Z,40.9
2019-03-20T10:34:16.355Z,40.4
2019-03-20T10:35:16.668Z,40.4
2019-03-20T10:36:16.962Z,41.2
2019-03-20T10:37:17.265Z,44.0
2019-03-20T10:38:16.566Z,41.8
2019-03-20T10:39:16.875Z,40.9
2019-03-20T10:40:17.186Z,39.8
2019-03-20T10:41:17.213Z,39.4
2019-03-20T10:42:16.536Z,40.8
2019-03-20T10:43:16.797Z,38.6
2019-03-20T10:44:17.080Z,39.6
2019-03-20T10:45:16.360Z,40.0
2019-03-20T10:46:16.689Z,39.8
2019-03-20T10:47:16.998Z,39.7
2019-03-20T10:48:16.306Z,40.5
2019-03-20T10:49:16.603Z,39.5
2019-03-20T10:50:16.905Z,39.7
2019-03-20T10:51:16.970Z,39.4
2019-03-20T10:52:17.275Z,39.3
2019-03-20T10:53:16.575Z,38.2
2019-03-20T10:54:16.871Z,38.0
2019-03-20T10:55:17.175Z,37.0
2019-03-20T10:56:16.494Z,37.9
2019-03-20T10:57:16.769Z,38.1
2019-03-20T10:58:17.050Z,36.7
2019-03-20T10:59:16.320Z,37.6
2019-03-20T11:00:16.626Z,37.5
2019-03-20T11:01:16.668Z,38.5
2019-03-20T11:02:17.003Z,39.5
2019-03-20T11:03:16.282Z,41.5
2019-03-20T11:04:16.593Z,41.1
2019-03-20T11:05:16.906Z,40.8
2019-03-20T11:06:17.249Z,40.1
2019-03-20T11:07:16.590Z,40.4
2019-03-20T11:08:16.919Z,39.6
2019-03-20T11:09:18.873Z,39.5
2019-03-20T11:10:17.200Z,40.6
2019-03-20T11:11:27.499Z,39.8
2019-03-20T11:12:16.880Z,41.0
2019-03-20T11:13:17.186Z,41.2
2019-03-20T11:14:16.492Z,41.3
2019-03-20T11:15:16.792Z,39.9
2019-03-20T11:16:17.100Z,41.1
2019-03-20T11:17:16.427Z,40.5
2019-03-20T11:18:16.726Z,40.6
2019-03-20T11:19:17.056Z,40.1
2019-03-20T11:20:16.365Z,40.4
2019-03-20T11:21:16.419Z,39.5
2019-03-20T11:22:19.367Z,40.0
2019-03-20T11:23:16.762Z,38.8
2019-03-20T11:24:17.049Z,39.0
2019-03-20T11:25:16.356Z,39.5
2019-03-20T11:26:16.690Z,39.0
2019-03-20T11:27:16.993Z,37.6
2019-03-20T11:28:16.302Z,37.8
2019-03-20T11:29:21.972Z,38.1
2019-03-20T11:30:18.059Z,38.0
2019-03-20T11:31:16.371Z,38.6
2019-03-20T11:32:16.665Z,38.5
2019-03-20T11:33:16.970Z,40.7
2019-03-20T11:34:17.265Z,39.2
2019-03-20T11:35:16.585Z,38.9
2019-03-20T11:36:16.890Z,39.7
2019-03-20T11:37:17.215Z,41.2
2019-03-20T11:38:16.528Z,41.1
2019-03-20T11:39:16.797Z,42.0
2019-03-20T11:40:17.095Z,41.7
2019-03-20T11:41:17.148Z,41.1
2019-03-20T11:42:16.637Z,40.7
2019-03-20T11:43:16.944Z,39.9
2019-03-20T11:44:17.286Z,39.2
2019-03-20T11:45:16.574Z,39.3
2019-03-20T11:46:16.841Z,39.6
2019-03-20T11:47:17.159Z,41.5
2019-03-20T11:48:16.477Z,42.6
2019-03-20T11:49:16.742Z,41.5
2019-03-20T11:50:17.064Z,41.2
2019-03-20T11:51:17.098Z,40.1
2019-03-20T11:52:16.402Z,40.9
2019-03-20T11:53:16.700Z,40.5
2019-03-20T11:54:17.001Z,40.3
2019-03-20T11:55:16.313Z,40.5
2019-03-20T11:56:16.623Z,39.8
2019-03-20T11:57:16.937Z,39.3
2019-03-20T11:58:17.227Z,40.5
2019-03-20T11:59:16.535Z,40.9
2019-03-20T12:00:16.872Z,40.3
2019-03-20T12:01:16.914Z,40.8
2019-03-20T12:02:28.629Z,40.3
2019-03-20T12:03:17.029Z,40.2
2019-03-20T12:04:16.358Z,40.4
2019-03-20T12:05:16.670Z,39.7
2019-03-20T12:06:16.976Z,40.0
2019-03-20T12:07:17.274Z,39.5
2019-03-20T12:08:16.587Z,39.9
2019-03-20T12:09:16.889Z,39.8
2019-03-20T12:10:17.227Z,39.7
2019-03-20T12:11:17.251Z,40.2
2019-03-20T12:12:16.585Z,39.4
2019-03-20T12:13:16.904Z,40.4
2019-03-20T12:14:17.214Z,40.6
2019-03-20T12:15:16.525Z,40.8
2019-03-20T12:16:16.816Z,41.6
2019-03-20T12:17:17.114Z,42.3
2019-03-20T12:18:16.420Z,43.4
2019-03-20T12:19:16.745Z,44.3
2019-03-20T12:20:17.052Z,42.2
2019-03-20T12:21:17.118Z,43.1
2019-03-20T12:22:16.448Z,42.4
2019-03-20T12:23:16.742Z,42.0
2019-03-20T12:24:17.048Z,41.8
2019-03-20T12:25:16.336Z,43.1
2019-03-20T12:26:16.638Z,41.9
2019-03-20T12:27:16.941Z,42.3
2019-03-20T12:28:17.238Z,40.2
2019-03-20T12:29:16.561Z,40.9
2019-03-20T12:30:16.883Z,41.2
2019-03-20T12:31:17.046Z,41.6
2019-03-20T12:32:16.368Z,41.8
2019-03-20T12:33:16.653Z,40.9
2019-03-20T12:34:16.927Z,41.5
2019-03-20T12:35:17.190Z,41.4
2019-03-20T12:36:16.552Z,42.0
2019-03-20T12:37:16.858Z,41.6
2019-03-20T12:38:17.147Z,41.7
2019-03-20T12:39:16.408Z,41.5
2019-03-20T12:40:16.725Z,42.2
2019-03-20T12:41:16.726Z,42.8
2019-03-20T12:42:17.018Z,41.5
2019-03-20T12:43:16.321Z,42.1
2019-03-20T12:44:16.635Z,42.5
2019-03-20T12:45:16.941Z,43.3
2019-03-20T12:46:17.254Z,42.9
2019-03-20T12:47:16.561Z,42.5
2019-03-20T12:48:16.886Z,42.0
2019-03-20T12:49:17.163Z,42.0
2019-03-20T12:50:16.477Z,41.9
2019-03-20T12:51:16.519Z,42.0
2019-03-20T12:52:16.823Z,42.9
2019-03-20T12:53:17.132Z,41.3
2019-03-20T12:54:16.457Z,42.1
2019-03-20T12:55:16.758Z,41.5
2019-03-20T12:56:17.058Z,42.9
2019-03-20T12:57:16.356Z,42.0
2019-03-20T12:58:16.671Z,41.3
2019-03-20T12:59:16.959Z,41.8
2019-03-20T13:00:17.262Z,42.5
2019-03-20T13:01:16.308Z,42.1
2019-03-20T13:02:16.636Z,41.6
2019-03-20T13:03:16.975Z,41.4
2019-03-20T13:04:17.281Z,42.0
2019-03-20T13:05:16.608Z,42.2
2019-03-20T13:06:16.913Z,42.4
2019-03-20T13:07:17.244Z,42.2
2019-03-20T13:08:16.521Z,42.2
2019-03-20T13:09:16.825Z,42.9
2019-03-20T13:10:17.153Z,41.8
2019-03-20T13:11:17.200Z,42.5
2019-03-20T13:12:16.500Z,40.5
2019-03-20T13:13:16.972Z,40.5
2019-03-20T13:14:16.316Z,41.4
2019-03-20T13:15:16.629Z,41.4
2019-03-20T13:16:16.911Z,41.4
2019-03-20T13:17:17.260Z,41.5
2019-03-20T13:18:16.565Z,41.8